sensor_id;sensor_type;location;lat;lon;timestamp;pressure;altitude;pressure_sealevel;temperature;humidity
41222;BME280;26952;42.884;23.918;2022-07-29T02:01:02;95953.81;;;18.55;97.70
41222;BME280;26952;42.884;23.918;2022-07-29T02:03:30;95952.63;;;18.51;97.62
41222;BME280;26952;42.884;23.918;2022-07-29T02:05:57;95953.88;;;18.48;98.23
41222;BME280;26952;42.884;23.918;2022-07-29T02:08:23;95957.38;;;18.49;98.08
41222;BME280;26952;42.884;23.918;2022-07-29T02:10:51;95950.00;;;18.44;98.16
41222;BME280;26952;42.884;23.918;2022-07-29T02:13:18;95961.13;;;18.48;97.48
41222;BME280;26952;42.884;23.918;2022-07-29T02:15:48;95947.97;;;18.40;97.52
41222;BME280;26952;42.884;23.918;2022-07-29T02:18:19;95952.91;;;18.43;98.28
41222;BME280;26952;42.884;23.918;2022-07-29T02:20:48;95936.44;;;18.33;97.77
41222;BME280;26952;42.884;23.918;2022-07-29T02:23:21;95946.31;;;18.39;97.46
41222;BME280;26952;42.884;23.918;2022-07-29T02:25:53;95939.78;;;18.28;96.83
41222;BME280;26952;42.884;23.918;2022-07-29T02:28:22;95959.72;;;18.39;96.47
41222;BME280;26952;42.884;23.918;2022-07-29T02:30:50;95942.81;;;18.38;95.98
41222;BME280;26952;42.884;23.918;2022-07-29T02:33:18;95940.91;;;18.45;96.06
41222;BME280;26952;42.884;23.918;2022-07-29T02:35:46;95949.00;;;18.39;96.41
41222;BME280;26952;42.884;23.918;2022-07-29T02:38:14;95947.16;;;18.39;96.52
41222;BME280;26952;42.884;23.918;2022-07-29T02:41:01;95944.63;;;18.44;95.78
41222;BME280;26952;42.884;23.918;2022-07-29T02:43:30;95943.59;;;18.45;94.87
41222;BME280;26952;42.884;23.918;2022-07-29T02:45:58;95947.88;;;18.53;95.21
41222;BME280;26952;42.884;23.918;2022-07-29T02:48:37;95950.75;;;18.51;95.45
41222;BME280;26952;42.884;23.918;2022-07-29T02:51:12;95948.28;;;18.50;95.59
41222;BME280;26952;42.884;23.918;2022-07-29T02:53:41;95948.16;;;18.45;95.93
41222;BME280;26952;42.884;23.918;2022-07-29T02:56:11;95940.09;;;18.45;95.77
41222;BME280;26952;42.884;23.918;2022-07-29T02:58:38;95941.06;;;18.50;96.04
41222;BME280;26952;42.884;23.918;2022-07-29T03:01:14;95948.72;;;18.47;96.78
41222;BME280;26952;42.884;23.918;2022-07-29T03:03:42;95944.59;;;18.51;97.12
41222;BME280;26952;42.884;23.918;2022-07-29T03:06:11;95942.28;;;18.54;97.16
41222;BME280;26952;42.884;23.918;2022-07-29T03:08:39;95947.75;;;18.66;96.64
41222;BME280;26952;42.884;23.918;2022-07-29T03:11:05;95947.47;;;18.74;96.67
41222;BME280;26952;42.884;23.918;2022-07-29T03:13:30;95944.94;;;18.79;96.30
41222;BME280;26952;42.884;23.918;2022-07-29T03:15:57;95939.09;;;18.88;96.05
41222;BME280;26952;42.884;23.918;2022-07-29T03:18:23;95939.22;;;18.93;96.35
41222;BME280;26952;42.884;23.918;2022-07-29T03:20:49;95939.38;;;18.98;94.96
41222;BME280;26952;42.884;23.918;2022-07-29T03:23:19;95946.31;;;19.06;94.95
41222;BME280;26952;42.884;23.918;2022-07-29T03:25:45;95944.16;;;19.14;93.76
41222;BME280;26952;42.884;23.918;2022-07-29T03:28:10;95948.03;;;19.18;93.83
41222;BME280;26952;42.884;23.918;2022-07-29T03:30:36;95952.00;;;19.34;92.41
41222;BME280;26952;42.884;23.918;2022-07-29T03:33:02;95939.78;;;19.38;92.15
41222;BME280;26952;42.884;23.918;2022-07-29T03:35:27;95954.41;;;19.42;91.31
41222;BME280;26952;42.884;23.918;2022-07-29T03:37:53;95945.47;;;19.48;91.31
41222;BME280;26952;42.884;23.918;2022-07-29T03:40:23;95940.97;;;19.60;90.83
41222;BME280;26952;42.884;23.918;2022-07-29T03:42:52;95943.00;;;19.76;90.22
41222;BME280;26952;42.884;23.918;2022-07-29T03:45:21;95946.63;;;20.00;91.38
41222;BME280;26952;42.884;23.918;2022-07-29T03:47:49;95936.72;;;20.41;87.93
41222;BME280;26952;42.884;23.918;2022-07-29T03:50:16;95938.41;;;20.89;86.34
41222;BME280;26952;42.884;23.918;2022-07-29T03:52:42;95942.81;;;21.41;81.98
41222;BME280;26952;42.884;23.918;2022-07-29T03:55:08;95936.53;;;22.03;79.44
41222;BME280;26952;42.884;23.918;2022-07-29T03:57:34;95927.63;;;22.47;76.74
41222;BME280;26952;42.884;23.918;2022-07-29T04:00:02;95931.75;;;22.99;74.03
41222;BME280;26952;42.884;23.918;2022-07-29T04:02:28;95935.34;;;22.88;73.63
41222;BME280;26952;42.884;23.918;2022-07-29T04:04:54;95927.59;;;22.59;73.96
41222;BME280;26952;42.884;23.918;2022-07-29T04:07:20;95938.00;;;22.22;75.02
41222;BME280;26952;42.884;23.918;2022-07-29T04:09:45;95935.31;;;21.94;77.00
41222;BME280;26952;42.884;23.918;2022-07-29T04:12:10;95928.34;;;21.70;78.23
41222;BME280;26952;42.884;23.918;2022-07-29T04:14:36;95926.41;;;21.54;78.87
41222;BME280;26952;42.884;23.918;2022-07-29T04:17:03;95926.06;;;21.50;78.05
41222;BME280;26952;42.884;23.918;2022-07-29T04:19:29;95934.75;;;21.41;78.11
41222;BME280;26952;42.884;23.918;2022-07-29T04:21:55;95930.63;;;21.38;79.15
41222;BME280;26952;42.884;23.918;2022-07-29T04:24:20;95931.94;;;21.36;79.80
41222;BME280;26952;42.884;23.918;2022-07-29T04:26:46;95939.53;;;21.39;81.39
41222;BME280;26952;42.884;23.918;2022-07-29T04:29:12;95939.66;;;21.44;80.66
41222;BME280;26952;42.884;23.918;2022-07-29T04:31:39;95943.41;;;21.43;79.55
41222;BME280;26952;42.884;23.918;2022-07-29T04:34:05;95938.59;;;21.45;81.80
41222;BME280;26952;42.884;23.918;2022-07-29T04:36:30;95947.50;;;21.45;83.60
41222;BME280;26952;42.884;23.918;2022-07-29T04:38:55;95951.94;;;21.51;84.00
41222;BME280;26952;42.884;23.918;2022-07-29T04:41:21;95949.94;;;21.47;82.92
41222;BME280;26952;42.884;23.918;2022-07-29T04:43:46;95942.03;;;21.29;85.37
41222;BME280;26952;42.884;23.918;2022-07-29T04:46:11;95951.78;;;21.07;86.78
41222;BME280;26952;42.884;23.918;2022-07-29T04:48:37;95958.22;;;21.06;87.55
41222;BME280;26952;42.884;23.918;2022-07-29T04:51:03;95959.38;;;20.98;89.68
41222;BME280;26952;42.884;23.918;2022-07-29T04:53:28;95958.22;;;21.06;89.98
41222;BME280;26952;42.884;23.918;2022-07-29T04:55:54;95966.38;;;21.11;88.52
41222;BME280;26952;42.884;23.918;2022-07-29T04:58:19;95966.63;;;21.21;87.75
41222;BME280;26952;42.884;23.918;2022-07-29T05:00:44;95970.72;;;21.23;87.79
41222;BME280;26952;42.884;23.918;2022-07-29T05:03:10;95969.06;;;21.34;87.10
41222;BME280;26952;42.884;23.918;2022-07-29T05:05:35;95974.91;;;21.42;86.18
41222;BME280;26952;42.884;23.918;2022-07-29T05:08:01;95973.47;;;21.51;85.92
41222;BME280;26952;42.884;23.918;2022-07-29T05:10:26;95955.00;;;21.43;86.57
41222;BME280;26952;42.884;23.918;2022-07-29T05:12:52;95969.53;;;21.42;86.10
41222;BME280;26952;42.884;23.918;2022-07-29T05:15:17;95972.34;;;21.13;88.66
41222;BME280;26952;42.884;23.918;2022-07-29T05:17:44;95977.03;;;21.17;89.25
41222;BME280;26952;42.884;23.918;2022-07-29T05:20:09;95975.06;;;21.24;87.53
41222;BME280;26952;42.884;23.918;2022-07-29T05:22:35;95979.50;;;21.19;87.42
41222;BME280;26952;42.884;23.918;2022-07-29T05:25:01;95969.00;;;21.06;88.14
41222;BME280;26952;42.884;23.918;2022-07-29T05:27:27;95970.72;;;21.23;88.12
41222;BME280;26952;42.884;23.918;2022-07-29T05:29:53;95979.59;;;21.35;87.92
41222;BME280;26952;42.884;23.918;2022-07-29T05:32:18;95980.66;;;21.46;87.53
41222;BME280;26952;42.884;23.918;2022-07-29T05:34:44;95981.78;;;21.61;87.24
41222;BME280;26952;42.884;23.918;2022-07-29T05:37:09;95988.78;;;21.74;87.46
41222;BME280;26952;42.884;23.918;2022-07-29T05:39:34;95989.03;;;22.12;84.65
41222;BME280;26952;42.884;23.918;2022-07-29T05:42:00;95991.47;;;22.53;82.66
41222;BME280;26952;42.884;23.918;2022-07-29T05:44:25;95995.00;;;23.03;78.24
41222;BME280;26952;42.884;23.918;2022-07-29T05:46:51;95993.78;;;23.27;76.47
41222;BME280;26952;42.884;23.918;2022-07-29T05:49:16;95995.13;;;23.47;77.49
41222;BME280;26952;42.884;23.918;2022-07-29T05:51:42;95998.06;;;23.62;76.19
41222;BME280;26952;42.884;23.918;2022-07-29T05:54:07;95994.66;;;24.14;73.52
41222;BME280;26952;42.884;23.918;2022-07-29T05:56:33;95994.34;;;24.86;70.43
41222;BME280;26952;42.884;23.918;2022-07-29T05:58:58;95994.25;;;25.44;67.32
41222;BME280;26952;42.884;23.918;2022-07-29T06:01:23;96001.34;;;25.97;65.39
41222;BME280;26952;42.884;23.918;2022-07-29T06:03:49;96004.66;;;26.09;63.71
41222;BME280;26952;42.884;23.918;2022-07-29T06:06:15;95995.84;;;25.86;64.63
41222;BME280;26952;42.884;23.918;2022-07-29T06:08:40;96002.53;;;25.27;67.16
41222;BME280;26952;42.884;23.918;2022-07-29T06:11:06;95997.38;;;25.31;67.60
41222;BME280;26952;42.884;23.918;2022-07-29T06:13:33;96004.81;;;25.35;67.52
41222;BME280;26952;42.884;23.918;2022-07-29T06:15:58;95998.44;;;25.61;66.38
41222;BME280;26952;42.884;23.918;2022-07-29T06:18:24;95996.75;;;26.02;65.94
41222;BME280;26952;42.884;23.918;2022-07-29T06:20:50;95996.56;;;26.24;63.42
41222;BME280;26952;42.884;23.918;2022-07-29T06:23:16;95999.91;;;26.51;63.16
41222;BME280;26952;42.884;23.918;2022-07-29T06:25:42;96000.53;;;26.83;59.89
41222;BME280;26952;42.884;23.918;2022-07-29T06:28:07;95993.75;;;27.00;58.40
41222;BME280;26952;42.884;23.918;2022-07-29T06:30:33;95990.22;;;27.25;57.80
41222;BME280;26952;42.884;23.918;2022-07-29T06:32:58;95990.69;;;27.72;56.34
41222;BME280;26952;42.884;23.918;2022-07-29T06:35:25;96001.06;;;27.50;55.25
41222;BME280;26952;42.884;23.918;2022-07-29T06:37:50;95997.19;;;27.86;55.03
41222;BME280;26952;42.884;23.918;2022-07-29T06:40:17;95987.91;;;28.61;52.53
41222;BME280;26952;42.884;23.918;2022-07-29T06:43:01;95990.03;;;28.15;51.18
41222;BME280;26952;42.884;23.918;2022-07-29T06:45:26;95984.59;;;28.69;50.42
41222;BME280;26952;42.884;23.918;2022-07-29T06:47:52;95993.00;;;28.73;49.83
41222;BME280;26952;42.884;23.918;2022-07-29T06:50:17;95981.84;;;28.69;50.17
41222;BME280;26952;42.884;23.918;2022-07-29T06:52:43;95995.28;;;28.56;50.47
41222;BME280;26952;42.884;23.918;2022-07-29T06:55:08;95985.34;;;28.75;50.13
41222;BME280;26952;42.884;23.918;2022-07-29T06:57:34;95980.59;;;29.29;48.50
41222;BME280;26952;42.884;23.918;2022-07-29T06:59:59;95977.13;;;29.75;47.17
41222;BME280;26952;42.884;23.918;2022-07-29T07:02:25;95965.34;;;30.04;49.68
41222;BME280;26952;42.884;23.918;2022-07-29T07:04:51;95968.38;;;30.02;48.45
41222;BME280;26952;42.884;23.918;2022-07-29T07:07:16;95970.88;;;30.17;48.22
41222;BME280;26952;42.884;23.918;2022-07-29T07:09:42;95958.03;;;30.60;45.51
41222;BME280;26952;42.884;23.918;2022-07-29T07:12:07;95959.06;;;30.45;46.62
41222;BME280;26952;42.884;23.918;2022-07-29T07:14:33;95969.06;;;30.36;46.58
41222;BME280;26952;42.884;23.918;2022-07-29T07:16:58;95965.00;;;30.10;47.27
41222;BME280;26952;42.884;23.918;2022-07-29T07:19:25;95975.50;;;29.46;49.00
41222;BME280;26952;42.884;23.918;2022-07-29T07:21:52;95972.69;;;28.94;49.33
41222;BME280;26952;42.884;23.918;2022-07-29T07:24:17;95973.38;;;28.76;49.20
41222;BME280;26952;42.884;23.918;2022-07-29T07:26:43;95967.75;;;28.57;50.95
41222;BME280;26952;42.884;23.918;2022-07-29T07:29:08;95975.75;;;28.38;52.72
41222;BME280;26952;42.884;23.918;2022-07-29T07:31:34;95973.16;;;28.67;53.99
41222;BME280;26952;42.884;23.918;2022-07-29T07:33:59;95974.06;;;28.91;50.47
41222;BME280;26952;42.884;23.918;2022-07-29T07:36:24;95973.50;;;29.56;51.67
41222;BME280;26952;42.884;23.918;2022-07-29T07:38:50;95975.53;;;30.40;50.49
41222;BME280;26952;42.884;23.918;2022-07-29T07:41:15;95976.88;;;30.43;46.40
41222;BME280;26952;42.884;23.918;2022-07-29T07:43:41;95967.28;;;30.64;47.06
41222;BME280;26952;42.884;23.918;2022-07-29T07:46:06;95976.41;;;30.78;45.13
41222;BME280;26952;42.884;23.918;2022-07-29T07:48:32;95973.84;;;31.00;44.78
41222;BME280;26952;42.884;23.918;2022-07-29T07:51:00;95972.09;;;31.23;44.34
41222;BME280;26952;42.884;23.918;2022-07-29T07:53:25;95969.19;;;31.00;44.38
41222;BME280;26952;42.884;23.918;2022-07-29T07:55:51;95963.81;;;31.28;44.68
41222;BME280;26952;42.884;23.918;2022-07-29T07:58:16;95974.03;;;31.41;45.49
41222;BME280;26952;42.884;23.918;2022-07-29T08:00:42;95971.34;;;30.66;45.21
41222;BME280;26952;42.884;23.918;2022-07-29T08:03:08;95967.16;;;30.92;45.30
41222;BME280;26952;42.884;23.918;2022-07-29T08:05:33;95959.28;;;30.67;45.14
41222;BME280;26952;42.884;23.918;2022-07-29T08:07:59;95966.25;;;30.41;46.79
41222;BME280;26952;42.884;23.918;2022-07-29T08:10:24;95965.06;;;30.47;46.32
41222;BME280;26952;42.884;23.918;2022-07-29T08:13:09;95962.00;;;31.04;46.44
41222;BME280;26952;42.884;23.918;2022-07-29T08:15:38;95963.94;;;31.55;46.09
41222;BME280;26952;42.884;23.918;2022-07-29T08:18:04;95964.06;;;32.04;44.59
41222;BME280;26952;42.884;23.918;2022-07-29T08:20:29;95960.75;;;32.70;43.90
41222;BME280;26952;42.884;23.918;2022-07-29T08:22:57;95953.38;;;33.14;41.73
41222;BME280;26952;42.884;23.918;2022-07-29T08:25:22;95958.78;;;32.84;42.67
41222;BME280;26952;42.884;23.918;2022-07-29T08:27:48;95955.44;;;33.53;42.18
41222;BME280;26952;42.884;23.918;2022-07-29T08:30:13;95952.69;;;33.31;40.88
41222;BME280;26952;42.884;23.918;2022-07-29T08:32:39;95948.28;;;33.21;40.57
41222;BME280;26952;42.884;23.918;2022-07-29T08:35:04;95949.94;;;33.31;40.24
41222;BME280;26952;42.884;23.918;2022-07-29T08:37:30;95954.81;;;33.56;41.58
41222;BME280;26952;42.884;23.918;2022-07-29T08:39:55;95948.94;;;34.10;39.46
41222;BME280;26952;42.884;23.918;2022-07-29T08:42:21;95932.63;;;34.14;38.65
41222;BME280;26952;42.884;23.918;2022-07-29T08:44:46;95946.03;;;33.23;39.32
41222;BME280;26952;42.884;23.918;2022-07-29T08:47:14;95947.19;;;32.51;41.80
41222;BME280;26952;42.884;23.918;2022-07-29T08:49:39;95942.03;;;31.95;42.62
41222;BME280;26952;42.884;23.918;2022-07-29T08:52:05;95940.78;;;31.15;43.93
41222;BME280;26952;42.884;23.918;2022-07-29T08:54:31;95938.38;;;31.73;41.71
41222;BME280;26952;42.884;23.918;2022-07-29T08:56:58;95929.88;;;32.01;42.62
41222;BME280;26952;42.884;23.918;2022-07-29T08:59:26;95935.97;;;31.98;42.74
41222;BME280;26952;42.884;23.918;2022-07-29T09:01:54;95927.09;;;32.28;41.00
41222;BME280;26952;42.884;23.918;2022-07-29T09:04:20;95936.44;;;31.14;42.58
41222;BME280;26952;42.884;23.918;2022-07-29T09:06:48;95922.28;;;31.85;43.18
41222;BME280;26952;42.884;23.918;2022-07-29T09:09:15;95927.19;;;32.37;41.37
41222;BME280;26952;42.884;23.918;2022-07-29T09:11:41;95923.25;;;33.01;42.20
41222;BME280;26952;42.884;23.918;2022-07-29T09:14:07;95910.84;;;33.87;39.44
41222;BME280;26952;42.884;23.918;2022-07-29T09:16:55;95918.88;;;33.75;37.90
41222;BME280;26952;42.884;23.918;2022-07-29T09:21:51;95911.97;;;33.24;37.88
41222;BME280;26952;42.884;23.918;2022-07-29T09:24:27;95914.03;;;32.25;39.88
41222;BME280;26952;42.884;23.918;2022-07-29T09:27:01;95909.38;;;31.72;41.54
41222;BME280;26952;42.884;23.918;2022-07-29T09:29:27;95900.94;;;32.22;40.26
41222;BME280;26952;42.884;23.918;2022-07-29T09:31:57;95908.91;;;32.46;40.82
41222;BME280;26952;42.884;23.918;2022-07-29T09:34:26;95908.75;;;32.29;39.73
41222;BME280;26952;42.884;23.918;2022-07-29T09:36:54;95905.94;;;32.78;40.37
41222;BME280;26952;42.884;23.918;2022-07-29T09:39:31;95898.75;;;33.35;38.66
41222;BME280;26952;42.884;23.918;2022-07-29T09:42:01;95896.72;;;33.71;38.01
41222;BME280;26952;42.884;23.918;2022-07-29T09:44:41;95904.72;;;32.84;38.52
41222;BME280;26952;42.884;23.918;2022-07-29T09:47:08;95897.78;;;33.31;38.43
41222;BME280;26952;42.884;23.918;2022-07-29T09:49:57;95906.88;;;33.40;37.32
41222;BME280;26952;42.884;23.918;2022-07-29T09:52:26;95889.41;;;34.14;37.61
41222;BME280;26952;42.884;23.918;2022-07-29T09:55:03;95891.06;;;33.76;36.73
41222;BME280;26952;42.884;23.918;2022-07-29T09:57:29;95896.75;;;33.80;36.58
41222;BME280;26952;42.884;23.918;2022-07-29T10:00:04;95899.13;;;34.12;37.58
41222;BME280;26952;42.884;23.918;2022-07-29T10:02:34;95887.09;;;34.64;35.44
41222;BME280;26952;42.884;23.918;2022-07-29T10:05:03;95890.59;;;35.41;35.64
41222;BME280;26952;42.884;23.918;2022-07-29T10:10:09;95881.28;;;35.63;35.71
41222;BME280;26952;42.884;23.918;2022-07-29T10:12:48;95887.59;;;35.63;34.16
41222;BME280;26952;42.884;23.918;2022-07-29T10:15:15;95887.06;;;34.47;35.72
41222;BME280;26952;42.884;23.918;2022-07-29T10:17:41;95879.53;;;32.60;39.04
41222;BME280;26952;42.884;23.918;2022-07-29T10:20:07;95884.00;;;32.56;40.57
41222;BME280;26952;42.884;23.918;2022-07-29T10:22:33;95877.69;;;32.56;43.22
41222;BME280;26952;42.884;23.918;2022-07-29T10:24:59;95878.28;;;32.30;40.42
41222;BME280;26952;42.884;23.918;2022-07-29T10:27:24;95874.19;;;32.28;43.05
41222;BME280;26952;42.884;23.918;2022-07-29T10:29:50;95873.34;;;32.05;41.50
41222;BME280;26952;42.884;23.918;2022-07-29T10:43:43;95865.50;;;32.26;42.18
41222;BME280;26952;42.884;23.918;2022-07-29T10:46:10;95864.25;;;32.32;41.11
41222;BME280;26952;42.884;23.918;2022-07-29T10:54:18;95850.16;;;33.35;40.23
41222;BME280;26952;42.884;23.918;2022-07-29T10:56:44;95844.03;;;33.78;37.63
41222;BME280;26952;42.884;23.918;2022-07-29T11:01:45;95853.41;;;33.37;37.64
41222;BME280;26952;42.884;23.918;2022-07-29T11:04:11;95842.00;;;33.13;40.90
41222;BME280;26952;42.884;23.918;2022-07-29T11:09:24;95850.97;;;33.05;39.02
41222;BME280;26952;42.884;23.918;2022-07-29T11:11:49;95837.53;;;32.95;39.32
41222;BME280;26952;42.884;23.918;2022-07-29T11:14:15;95840.19;;;33.39;39.15
41222;BME280;26952;42.884;23.918;2022-07-29T11:17:03;95840.31;;;33.82;38.37
41222;BME280;26952;42.884;23.918;2022-07-29T11:19:29;95832.25;;;33.86;36.72
41222;BME280;26952;42.884;23.918;2022-07-29T11:21:55;95829.69;;;33.41;37.49
41222;BME280;26952;42.884;23.918;2022-07-29T11:24:26;95820.47;;;33.37;38.24
41222;BME280;26952;42.884;23.918;2022-07-29T11:29:47;95826.09;;;32.80;39.29
41222;BME280;26952;42.884;23.918;2022-07-29T11:32:14;95816.72;;;33.33;38.75
41222;BME280;26952;42.884;23.918;2022-07-29T11:34:41;95821.75;;;33.40;37.24
41222;BME280;26952;42.884;23.918;2022-07-29T11:39:41;95810.00;;;33.96;37.54
41222;BME280;26952;42.884;23.918;2022-07-29T11:45:10;95814.56;;;34.68;34.44
41222;BME280;26952;42.884;23.918;2022-07-29T11:47:39;95812.00;;;34.55;35.67
41222;BME280;26952;42.884;23.918;2022-07-29T11:50:10;95805.84;;;34.24;35.13
41222;BME280;26952;42.884;23.918;2022-07-29T11:52:41;95803.69;;;33.87;34.74
41222;BME280;26952;42.884;23.918;2022-07-29T11:55:13;95794.84;;;34.24;36.28
41222;BME280;26952;42.884;23.918;2022-07-29T11:57:59;95807.91;;;34.86;35.33
41222;BME280;26952;42.884;23.918;2022-07-29T12:03:00;95795.75;;;33.37;38.13
41222;BME280;26952;42.884;23.918;2022-07-29T12:05:33;95794.28;;;33.01;40.29
41222;BME280;26952;42.884;23.918;2022-07-29T12:08:16;95795.13;;;32.57;40.96
41222;BME280;26952;42.884;23.918;2022-07-29T12:10:44;95785.66;;;32.41;40.80
41222;BME280;26952;42.884;23.918;2022-07-29T12:13:11;95797.72;;;32.18;41.55
41222;BME280;26952;42.884;23.918;2022-07-29T12:15:37;95803.59;;;31.62;42.46
41222;BME280;26952;42.884;23.918;2022-07-29T12:18:13;95808.34;;;31.57;43.19
41222;BME280;26952;42.884;23.918;2022-07-29T12:20:39;95796.88;;;31.68;43.34
41222;BME280;26952;42.884;23.918;2022-07-29T12:23:06;95806.41;;;31.17;43.97
41222;BME280;26952;42.884;23.918;2022-07-29T12:25:34;95803.13;;;30.87;45.24
41222;BME280;26952;42.884;23.918;2022-07-29T12:28:03;95808.31;;;31.02;45.69
41222;BME280;26952;42.884;23.918;2022-07-29T12:33:26;95787.84;;;30.86;45.02
41222;BME280;26952;42.884;23.918;2022-07-29T12:36:13;95796.38;;;30.34;46.27
41222;BME280;26952;42.884;23.918;2022-07-29T12:38:40;95799.28;;;30.88;45.90
41222;BME280;26952;42.884;23.918;2022-07-29T12:41:06;95807.16;;;30.90;45.94
41222;BME280;26952;42.884;23.918;2022-07-29T12:43:31;95803.03;;;30.60;46.42
41222;BME280;26952;42.884;23.918;2022-07-29T12:45:57;95791.47;;;30.82;46.62
41222;BME280;26952;42.884;23.918;2022-07-29T12:48:38;95813.38;;;30.95;46.75
41222;BME280;26952;42.884;23.918;2022-07-29T12:51:05;95797.34;;;30.89;45.69
41222;BME280;26952;42.884;23.918;2022-07-29T12:53:33;95809.44;;;30.69;46.62
41222;BME280;26952;42.884;23.918;2022-07-29T12:55:59;95801.59;;;30.81;46.84
41222;BME280;26952;42.884;23.918;2022-07-29T12:58:41;95803.25;;;30.96;47.08
41222;BME280;26952;42.884;23.918;2022-07-29T13:01:12;95806.06;;;31.04;46.08
41222;BME280;26952;42.884;23.918;2022-07-29T13:03:58;95805.69;;;31.25;45.81
41222;BME280;26952;42.884;23.918;2022-07-29T13:09:09;95802.97;;;31.25;42.69
41222;BME280;26952;42.884;23.918;2022-07-29T13:11:45;95794.34;;;31.17;41.10
41222;BME280;26952;42.884;23.918;2022-07-29T13:14:13;95795.72;;;31.34;41.50
41222;BME280;26952;42.884;23.918;2022-07-29T13:19:40;95804.91;;;31.38;44.64
41222;BME280;26952;42.884;23.918;2022-07-29T13:22:06;95805.69;;;31.25;44.09
41222;BME280;26952;42.884;23.918;2022-07-29T13:24:32;95805.00;;;31.19;44.83
41222;BME280;26952;42.884;23.918;2022-07-29T13:26:58;95803.94;;;31.34;45.26
41222;BME280;26952;42.884;23.918;2022-07-29T13:29:24;95803.41;;;31.32;43.81
41222;BME280;26952;42.884;23.918;2022-07-29T13:31:51;95807.25;;;31.58;44.22
41222;BME280;26952;42.884;23.918;2022-07-29T13:34:17;95813.84;;;31.43;43.46
41222;BME280;26952;42.884;23.918;2022-07-29T13:36:44;95809.75;;;31.13;42.72
41222;BME280;26952;42.884;23.918;2022-07-29T13:39:09;95814.19;;;31.09;40.47
41222;BME280;26952;42.884;23.918;2022-07-29T13:41:36;95799.59;;;31.00;38.99
41222;BME280;26952;42.884;23.918;2022-07-29T13:44:02;95762.31;;;30.91;39.40
41222;BME280;26952;42.884;23.918;2022-07-29T13:46:27;95781.63;;;31.40;39.00
41222;BME280;26952;42.884;23.918;2022-07-29T13:48:52;95775.91;;;31.64;39.33
41222;BME280;26952;42.884;23.918;2022-07-29T13:51:18;95781.16;;;31.74;38.25
41222;BME280;26952;42.884;23.918;2022-07-29T13:53:43;95778.13;;;31.75;37.16
41222;BME280;26952;42.884;23.918;2022-07-29T13:56:09;95780.50;;;32.04;36.42
41222;BME280;26952;42.884;23.918;2022-07-29T13:58:34;95768.91;;;32.07;35.56
41222;BME280;26952;42.884;23.918;2022-07-29T14:01:00;95756.69;;;31.91;34.58
41222;BME280;26952;42.884;23.918;2022-07-29T14:03:25;95758.69;;;31.99;35.60
41222;BME280;26952;42.884;23.918;2022-07-29T14:05:51;95758.47;;;32.31;35.02
41222;BME280;26952;42.884;23.918;2022-07-29T14:08:17;95740.53;;;32.03;34.44
41222;BME280;26952;42.884;23.918;2022-07-29T14:10:42;95738.88;;;32.02;36.06
41222;BME280;26952;42.884;23.918;2022-07-29T14:13:07;95740.72;;;32.06;34.72
41222;BME280;26952;42.884;23.918;2022-07-29T14:15:33;95750.94;;;31.79;35.85
41222;BME280;26952;42.884;23.918;2022-07-29T14:17:58;95759.88;;;31.71;36.83
41222;BME280;26952;42.884;23.918;2022-07-29T14:20:23;95774.66;;;31.83;37.34
41222;BME280;26952;42.884;23.918;2022-07-29T14:22:49;95763.41;;;31.71;37.54
41222;BME280;26952;42.884;23.918;2022-07-29T14:25:14;95774.66;;;31.97;38.26
41222;BME280;26952;42.884;23.918;2022-07-29T14:27:40;95762.34;;;32.08;38.08
41222;BME280;26952;42.884;23.918;2022-07-29T14:30:06;95776.78;;;32.22;37.12
41222;BME280;26952;42.884;23.918;2022-07-29T14:32:31;95760.06;;;32.10;38.98
41222;BME280;26952;42.884;23.918;2022-07-29T14:34:57;95770.13;;;32.14;39.21
41222;BME280;26952;42.884;23.918;2022-07-29T14:37:22;95769.59;;;31.77;41.37
41222;BME280;26952;42.884;23.918;2022-07-29T14:39:47;95778.63;;;31.64;40.96
41222;BME280;26952;42.884;23.918;2022-07-29T14:42:13;95779.25;;;31.61;42.19
41222;BME280;26952;42.884;23.918;2022-07-29T14:44:39;95767.38;;;31.52;43.30
41222;BME280;26952;42.884;23.918;2022-07-29T14:47:06;95775.50;;;31.57;42.40
41222;BME280;26952;42.884;23.918;2022-07-29T14:49:31;95766.34;;;31.75;42.79
41222;BME280;26952;42.884;23.918;2022-07-29T14:51:57;95770.78;;;31.98;42.57
41222;BME280;26952;42.884;23.918;2022-07-29T14:54:22;95776.31;;;31.44;43.23
41222;BME280;26952;42.884;23.918;2022-07-29T14:56:47;95783.78;;;31.11;44.74
41222;BME280;26952;42.884;23.918;2022-07-29T14:59:16;95784.38;;;30.81;45.44
41222;BME280;26952;42.884;23.918;2022-07-29T15:01:41;95777.72;;;30.23;45.75
41222;BME280;26952;42.884;23.918;2022-07-29T15:04:06;95784.13;;;30.13;45.55
41222;BME280;26952;42.884;23.918;2022-07-29T15:06:32;95778.78;;;30.40;45.48
41222;BME280;26952;42.884;23.918;2022-07-29T15:08:57;95768.41;;;30.69;44.67
41222;BME280;26952;42.884;23.918;2022-07-29T15:11:23;95769.78;;;30.85;44.31
41222;BME280;26952;42.884;23.918;2022-07-29T15:13:48;95778.03;;;31.13;44.15
41222;BME280;26952;42.884;23.918;2022-07-29T15:16:13;95772.66;;;31.21;44.74
41222;BME280;26952;42.884;23.918;2022-07-29T15:18:39;95759.38;;;31.55;43.49
41222;BME280;26952;42.884;23.918;2022-07-29T15:21:05;95757.44;;;31.69;45.24
41222;BME280;26952;42.884;23.918;2022-07-29T15:23:32;95754.97;;;31.81;40.98
41222;BME280;26952;42.884;23.918;2022-07-29T15:25:58;95753.03;;;31.82;42.29
41222;BME280;26952;42.884;23.918;2022-07-29T15:28:24;95762.19;;;31.77;41.28
41222;BME280;26952;42.884;23.918;2022-07-29T15:30:49;95754.88;;;31.73;41.54
41222;BME280;26952;42.884;23.918;2022-07-29T15:33:15;95760.91;;;31.21;42.41
41222;BME280;26952;42.884;23.918;2022-07-29T15:35:40;95765.75;;;30.83;43.30
41222;BME280;26952;42.884;23.918;2022-07-29T15:38:06;95762.91;;;30.42;44.20